createdAt,value
2019-01-31T00:00:41.382Z,1010.80
2019-01-31T00:01:41.404Z,1010.81
2019-01-31T00:02:41.428Z,1010.81
2019-01-31T00:03:41.449Z,1010.78
2019-01-31T00:04:41.468Z,1010.81
2019-01-31T00:05:41.491Z,1010.76
2019-01-31T00:06:41.513Z,1010.78
2019-01-31T00:07:41.533Z,1010.75
2019-01-31T00:08:46.024Z,1010.78
2019-01-31T00:09:41.578Z,1010.76
2019-01-31T00:10:41.599Z,1010.71
2019-01-31T00:11:41.622Z,1010.72
2019-01-31T00:12:41.641Z,1010.80
2019-01-31T00:13:41.663Z,1010.78
2019-01-31T00:14:41.687Z,1010.78
2019-01-31T00:15:41.706Z,1010.75
2019-01-31T00:16:41.727Z,1010.77
2019-01-31T00:17:41.749Z,1010.73
2019-01-31T00:18:41.773Z,1010.70
2019-01-31T00:19:41.796Z,1010.79
2019-01-31T00:20:41.814Z,1010.75
2019-01-31T00:21:41.836Z,1010.77
2019-01-31T00:22:41.858Z,1010.76
2019-01-31T00:23:41.878Z,1010.78
2019-01-31T00:24:41.904Z,1010.80
2019-01-31T00:25:41.922Z,1010.83
2019-01-31T00:26:41.945Z,1010.89
2019-01-31T00:27:41.965Z,1010.81
2019-01-31T00:28:41.986Z,1010.84
2019-01-31T00:29:42.007Z,1010.84
2019-01-31T00:30:42.030Z,1010.86
2019-01-31T00:31:42.054Z,1010.82
2019-01-31T00:32:42.072Z,1010.85
2019-01-31T00:33:42.094Z,1010.82
2019-01-31T00:34:42.122Z,1010.84
2019-01-31T00:35:42.136Z,1010.81
2019-01-31T00:36:42.160Z,1010.83
2019-01-31T00:37:42.180Z,1010.87
2019-01-31T00:38:42.203Z,1010.86
2019-01-31T00:39:42.230Z,1010.84
2019-01-31T00:40:42.246Z,1010.85
2019-01-31T00:41:42.264Z,1010.88
2019-01-31T00:42:42.287Z,1010.87
2019-01-31T00:43:42.307Z,1010.89
2019-01-31T00:44:42.336Z,1010.92
2019-01-31T00:45:42.354Z,1010.90
2019-01-31T00:46:42.370Z,1010.94
2019-01-31T00:47:42.392Z,1010.95
2019-01-31T00:48:42.415Z,1010.95
2019-01-31T00:49:42.523Z,1010.94
2019-01-31T00:50:42.458Z,1010.99
2019-01-31T00:51:42.480Z,1010.93
2019-01-31T00:52:42.498Z,1010.97
2019-01-31T00:53:42.521Z,1011.00
2019-01-31T00:54:42.540Z,1010.95
2019-01-31T00:55:42.569Z,1010.99
2019-01-31T00:56:42.585Z,1010.98
2019-01-31T00:57:42.605Z,1011.02
2019-01-31T00:58:42.626Z,1011.00
2019-01-31T00:59:42.651Z,1010.97
2019-01-31T01:00:42.669Z,1011.01
2019-01-31T01:01:42.695Z,1010.95
2019-01-31T01:02:42.715Z,1010.98
2019-01-31T01:03:42.734Z,1010.96
2019-01-31T01:04:42.754Z,1010.95
2019-01-31T01:05:42.776Z,1010.97
2019-01-31T01:06:42.796Z,1010.99
2019-01-31T01:07:42.821Z,1010.98
2019-01-31T01:08:42.838Z,1011.00
2019-01-31T01:09:42.861Z,1011.03
2019-01-31T01:10:42.906Z,1011.03
2019-01-31T01:11:42.903Z,1011.00
2019-01-31T01:12:42.924Z,1011.00
2019-01-31T01:13:42.945Z,1011.00
2019-01-31T01:14:42.970Z,1011.01
2019-01-31T01:15:42.989Z,1011.00
2019-01-31T01:16:43.009Z,1010.96
2019-01-31T01:17:43.031Z,1010.98
2019-01-31T01:18:43.053Z,1010.98
2019-01-31T01:19:43.075Z,1010.96
2019-01-31T01:20:43.096Z,1011.01
2019-01-31T01:21:43.119Z,1011.02
2019-01-31T01:22:43.249Z,1010.98
2019-01-31T01:23:43.162Z,1010.97
2019-01-31T01:24:43.181Z,1011.02
2019-01-31T01:25:43.209Z,1011.02
2019-01-31T01:26:43.225Z,1011.01
2019-01-31T01:27:43.244Z,1011.01
2019-01-31T01:28:43.270Z,1011.05
2019-01-31T01:29:43.286Z,1011.00
2019-01-31T01:30:43.306Z,1011.03
2019-01-31T01:31:43.332Z,1011.02
2019-01-31T01:32:43.349Z,1010.98
2019-01-31T01:33:43.371Z,1010.97
2019-01-31T01:34:43.391Z,1011.01
2019-01-31T01:35:43.414Z,1011.03
2019-01-31T01:36:43.539Z,1010.98
2019-01-31T01:37:43.461Z,1011.00
2019-01-31T01:38:43.478Z,1010.99
2019-01-31T01:39:43.499Z,1010.99
2019-01-31T01:40:43.519Z,1010.99
2019-01-31T01:41:43.543Z,1010.98
2019-01-31T01:42:43.562Z,1010.98
2019-01-31T01:43:43.591Z,1011.00
2019-01-31T01:44:43.605Z,1010.97
2019-01-31T01:45:43.626Z,1010.98
2019-01-31T01:46:43.649Z,1010.96
2019-01-31T01:47:43.669Z,1010.97
2019-01-31T01:48:43.695Z,1010.96
2019-01-31T01:49:43.714Z,1010.93
2019-01-31T01:50:43.734Z,1010.89
2019-01-31T01:51:43.755Z,1010.90
2019-01-31T01:52:43.775Z,1010.93
2019-01-31T01:53:43.803Z,1010.92
2019-01-31T01:54:43.820Z,1010.93
2019-01-31T01:55:43.842Z,1010.96
2019-01-31T01:56:43.863Z,1010.94
2019-01-31T01:57:43.883Z,1010.96
2019-01-31T01:58:43.906Z,1010.92
2019-01-31T01:59:43.929Z,1010.94
2019-01-31T02:00:43.947Z,1010.93
2019-01-31T02:01:43.972Z,1010.95
2019-01-31T02:02:43.992Z,1010.93
2019-01-31T02:03:44.012Z,1010.91
2019-01-31T02:04:44.034Z,1010.96
2019-01-31T02:05:44.055Z,1010.93
2019-01-31T02:06:44.074Z,1010.92
2019-01-31T02:07:44.101Z,1010.93
2019-01-31T02:08:44.118Z,1010.92
2019-01-31T02:09:44.140Z,1010.91
2019-01-31T02:10:44.163Z,1010.91
2019-01-31T02:11:44.184Z,1010.92
2019-01-31T02:12:44.204Z,1010.94
2019-01-31T02:13:44.228Z,1010.90
2019-01-31T02:14:44.251Z,1010.90
2019-01-31T02:15:44.269Z,1010.89
2019-01-31T02:16:44.292Z,1010.84
2019-01-31T02:17:44.312Z,1010.86
2019-01-31T02:18:44.333Z,1010.89
2019-01-31T02:19:44.355Z,1010.85
2019-01-31T02:20:44.378Z,1010.83
2019-01-31T02:21:44.399Z,1010.83
2019-01-31T02:22:44.418Z,1010.85
2019-01-31T02:23:44.441Z,1010.81
2019-01-31T02:24:44.462Z,1010.85
2019-01-31T02:25:44.483Z,1010.88
2019-01-31T02:26:44.510Z,1010.88
2019-01-31T02:27:44.529Z,1010.84
2019-01-31T02:28:44.546Z,1010.85
2019-01-31T02:29:44.569Z,1010.88
2019-01-31T02:30:44.594Z,1010.88
2019-01-31T02:31:44.612Z,1010.91
2019-01-31T02:32:44.633Z,1010.89
2019-01-31T02:33:44.654Z,1010.92
2019-01-31T02:34:44.681Z,1010.87
2019-01-31T02:35:44.697Z,1010.88
2019-01-31T02:36:44.720Z,1010.87
2019-01-31T02:37:44.743Z,1010.85
2019-01-31T02:38:44.762Z,1010.85
2019-01-31T02:39:44.786Z,1010.87
2019-01-31T02:40:44.806Z,1010.88
2019-01-31T02:41:44.830Z,1010.85
2019-01-31T02:42:44.848Z,1010.87
2019-01-31T02:43:44.868Z,1010.85
2019-01-31T02:44:44.890Z,1010.85
2019-01-31T02:45:44.910Z,1010.80
2019-01-31T02:46:44.937Z,1010.85
2019-01-31T02:47:44.956Z,1010.84
2019-01-31T02:48:44.977Z,1010.86
2019-01-31T02:49:45.000Z,1010.89
2019-01-31T02:50:45.018Z,1010.88
2019-01-31T02:51:45.041Z,1010.87
2019-01-31T02:52:45.062Z,1010.89
2019-01-31T02:53:45.082Z,1010.91
2019-01-31T02:54:45.106Z,1010.95
2019-01-31T02:55:45.124Z,1010.92
2019-01-31T02:56:45.151Z,1010.91
2019-01-31T02:57:45.175Z,1010.89
2019-01-31T02:58:45.190Z,1010.95
2019-01-31T02:59:45.212Z,1010.97
2019-01-31T03:00:45.274Z,1011.00
2019-01-31T03:01:45.254Z,1010.98
2019-01-31T03:02:45.277Z,1010.97
2019-01-31T03:03:45.300Z,1010.98
2019-01-31T03:04:45.322Z,1010.93
2019-01-31T03:05:45.342Z,1010.90
2019-01-31T03:06:45.362Z,1010.93
2019-01-31T03:07:45.393Z,1010.88
2019-01-31T03:08:45.404Z,1010.93
2019-01-31T03:09:54.548Z,1010.92
2019-01-31T03:10:45.449Z,1010.90
2019-01-31T03:11:45.469Z,1010.90
2019-01-31T03:12:45.491Z,1010.88
2019-01-31T03:13:45.512Z,1010.88
2019-01-31T03:14:45.541Z,1010.84
2019-01-31T03:15:45.558Z,1010.83
2019-01-31T03:16:45.587Z,1010.88
2019-01-31T03:17:45.599Z,1010.86
2019-01-31T03:18:45.622Z,1010.86
2019-01-31T03:19:45.643Z,1010.92
2019-01-31T03:20:45.667Z,1010.90
2019-01-31T03:21:45.687Z,1010.93
2019-01-31T03:22:45.708Z,1010.91
2019-01-31T03:23:45.728Z,1010.93
2019-01-31T03:24:45.766Z,1010.93
2019-01-31T03:25:45.774Z,1010.93
2019-01-31T03:26:45.800Z,1010.92
2019-01-31T03:27:45.815Z,1010.87
2019-01-31T03:28:45.837Z,1010.87
2019-01-31T03:29:45.857Z,1010.88
2019-01-31T03:30:45.882Z,1010.88
2019-01-31T03:31:45.933Z,1010.91
2019-01-31T03:32:45.999Z,1010.92
2019-01-31T03:33:45.948Z,1010.93
2019-01-31T03:34:45.968Z,1010.89
2019-01-31T03:35:45.986Z,1010.90
2019-01-31T03:36:46.009Z,1010.95
2019-01-31T03:37:46.028Z,1010.99
2019-01-31T03:38:46.050Z,1011.03
2019-01-31T03:39:46.075Z,1011.00
2019-01-31T03:40:46.093Z,1011.02
2019-01-31T03:41:46.114Z,1011.05
2019-01-31T03:42:46.136Z,1011.05
2019-01-31T03:43:46.158Z,1011.06
2019-01-31T03:44:46.178Z,1011.11
2019-01-31T03:45:46.198Z,1011.07
2019-01-31T03:46:46.222Z,1011.08
2019-01-31T03:47:46.242Z,1011.13
2019-01-31T03:48:46.263Z,1011.13
2019-01-31T03:49:46.283Z,1011.11
2019-01-31T03:50:46.308Z,1011.12
2019-01-31T03:51:46.327Z,1011.11
2019-01-31T03:52:46.347Z,1011.10
2019-01-31T03:53:46.490Z,1011.10
2019-01-31T03:54:46.389Z,1011.09
2019-01-31T03:55:46.412Z,1011.07
2019-01-31T03:56:46.431Z,1011.09
2019-01-31T03:57:46.453Z,1011.12
2019-01-31T03:58:46.478Z,1011.11
2019-01-31T03:59:46.496Z,1011.12
2019-01-31T04:00:46.518Z,1011.15
2019-01-31T04:01:46.541Z,1011.18
2019-01-31T04:02:46.558Z,1011.17
2019-01-31T04:03:46.580Z,1011.19
2019-01-31T04:04:46.600Z,1011.19
2019-01-31T04:05:46.621Z,1011.19
2019-01-31T04:06:46.649Z,1011.19
2019-01-31T04:07:46.678Z,1011.20
2019-01-31T04:08:46.685Z,1011.18
2019-01-31T04:09:46.704Z,1011.19
2019-01-31T04:10:46.725Z,1011.22
2019-01-31T04:11:46.752Z,1011.23
2019-01-31T04:12:46.768Z,1011.23
2019-01-31T04:13:46.787Z,1011.23
2019-01-31T04:14:46.820Z,1011.28
2019-01-31T04:15:46.830Z,1011.24
2019-01-31T04:16:46.849Z,1011.20
2019-01-31T04:17:46.876Z,1011.28
2019-01-31T04:18:46.892Z,1011.19
2019-01-31T04:19:46.915Z,1011.24
2019-01-31T04:20:46.936Z,1011.25
2019-01-31T04:21:46.960Z,1011.26
2019-01-31T04:22:46.977Z,1011.22
2019-01-31T04:23:46.999Z,1011.27
2019-01-31T04:24:47.018Z,1011.26
2019-01-31T04:25:47.039Z,1011.23
2019-01-31T04:26:47.060Z,1011.23
2019-01-31T04:27:47.084Z,1011.21
2019-01-31T04:28:47.100Z,1011.23
2019-01-31T04:29:47.121Z,1011.23
2019-01-31T04:30:47.145Z,1011.22
2019-01-31T04:31:47.163Z,1011.17
2019-01-31T04:32:47.182Z,1011.20
2019-01-31T04:33:47.206Z,1011.21
2019-01-31T04:34:47.225Z,1011.18
2019-01-31T04:35:47.249Z,1011.21
2019-01-31T04:36:47.265Z,1011.23
2019-01-31T04:37:47.288Z,1011.21
2019-01-31T04:38:47.309Z,1011.24
2019-01-31T04:39:47.333Z,1011.20
2019-01-31T04:40:47.348Z,1011.24
2019-01-31T04:41:47.369Z,1011.22
2019-01-31T04:42:47.393Z,1011.22
2019-01-31T04:43:47.414Z,1011.28
2019-01-31T04:44:47.544Z,1011.21
2019-01-31T04:45:47.455Z,1011.26
2019-01-31T04:46:47.478Z,1011.24
2019-01-31T04:47:47.496Z,1011.22
2019-01-31T04:48:47.513Z,1011.22
2019-01-31T04:49:47.538Z,1011.27
2019-01-31T04:50:47.556Z,1011.24
2019-01-31T04:51:47.577Z,1011.26
2019-01-31T04:52:47.598Z,1011.25
2019-01-31T04:53:47.622Z,1011.26
2019-01-31T04:54:47.640Z,1011.27
2019-01-31T04:55:47.662Z,1011.25
2019-01-31T04:56:47.678Z,1011.25
2019-01-31T04:57:47.702Z,1011.28
2019-01-31T04:58:47.722Z,1011.27
2019-01-31T04:59:47.743Z,1011.28
2019-01-31T05:00:47.764Z,1011.30
2019-01-31T05:01:47.787Z,1011.28
2019-01-31T05:02:47.807Z,1011.31
2019-01-31T05:03:47.828Z,1011.29
2019-01-31T05:04:47.848Z,1011.32
2019-01-31T05:05:47.869Z,1011.33
2019-01-31T05:06:47.888Z,1011.33
2019-01-31T05:07:47.907Z,1011.36
2019-01-31T05:08:47.929Z,1011.34
2019-01-31T05:09:47.949Z,1011.36
2019-01-31T05:10:47.973Z,1011.36
2019-01-31T05:11:47.994Z,1011.37
2019-01-31T05:12:48.012Z,1011.37
2019-01-31T05:13:48.034Z,1011.36
2019-01-31T05:14:48.056Z,1011.37
2019-01-31T05:15:48.076Z,1011.37
2019-01-31T05:16:48.093Z,1011.35
2019-01-31T05:17:48.114Z,1011.34
2019-01-31T05:18:48.137Z,1011.33
2019-01-31T05:19:48.159Z,1011.32
2019-01-31T05:20:48.176Z,1011.30
2019-01-31T05:21:48.198Z,1011.34
2019-01-31T05:22:48.222Z,1011.31
2019-01-31T05:23:48.240Z,1011.30
2019-01-31T05:24:48.260Z,1011.33
2019-01-31T05:25:48.280Z,1011.33
2019-01-31T05:26:48.303Z,1011.36
2019-01-31T05:27:48.322Z,1011.35
2019-01-31T05:28:48.342Z,1011.36
2019-01-31T05:29:48.363Z,1011.34
2019-01-31T05:30:48.385Z,1011.31
2019-01-31T05:31:48.405Z,1011.30
2019-01-31T05:32:48.427Z,1011.30
2019-01-31T05:33:48.451Z,1011.26
2019-01-31T05:34:48.466Z,1011.30
2019-01-31T05:35:48.487Z,1011.30
2019-01-31T05:36:48.508Z,1011.31
2019-01-31T05:37:48.529Z,1011.37
2019-01-31T05:38:48.554Z,1011.39
2019-01-31T05:39:48.569Z,1011.37
2019-01-31T05:40:55.575Z,1011.37
2019-01-31T05:41:48.610Z,1011.40
2019-01-31T05:42:48.634Z,1011.40
2019-01-31T05:43:48.653Z,1011.43
2019-01-31T05:44:48.679Z,1011.41
2019-01-31T05:45:48.698Z,1011.38
2019-01-31T05:46:48.716Z,1011.41
2019-01-31T05:47:48.739Z,1011.38
2019-01-31T05:48:48.758Z,1011.35
2019-01-31T05:49:48.775Z,1011.37
2019-01-31T05:50:48.801Z,1011.34
2019-01-31T05:51:48.820Z,1011.32
2019-01-31T05:52:48.838Z,1011.34
2019-01-31T05:53:48.858Z,1011.37
2019-01-31T05:54:48.884Z,1011.36
2019-01-31T05:55:48.903Z,1011.39
2019-01-31T05:56:48.925Z,1011.37
2019-01-31T05:57:48.946Z,1011.39
2019-01-31T05:58:48.969Z,1011.41
2019-01-31T05:59:48.986Z,1011.38
2019-01-31T06:00:49.006Z,1011.38
2019-01-31T06:01:49.029Z,1011.38
2019-01-31T06:02:49.052Z,1011.36
2019-01-31T06:03:49.074Z,1011.41
2019-01-31T06:04:49.087Z,1011.42
2019-01-31T06:05:49.111Z,1011.41
2019-01-31T06:06:49.129Z,1011.43
2019-01-31T06:07:49.150Z,1011.44
2019-01-31T06:08:49.170Z,1011.38
2019-01-31T06:09:49.194Z,1011.41
2019-01-31T06:10:49.215Z,1011.38
2019-01-31T06:11:49.236Z,1011.33
2019-01-31T06:12:49.253Z,1011.36
2019-01-31T06:13:49.274Z,1011.37
2019-01-31T06:14:49.296Z,1011.41
2019-01-31T06:15:49.317Z,1011.37
2019-01-31T06:16:49.344Z,1011.41
2019-01-31T06:17:49.358Z,1011.40
2019-01-31T06:18:49.379Z,1011.36
2019-01-31T06:19:49.401Z,1011.41
2019-01-31T06:20:49.421Z,1011.42
2019-01-31T06:21:49.441Z,1011.41
2019-01-31T06:22:49.463Z,1011.45
2019-01-31T06:23:49.487Z,1011.47
2019-01-31T06:24:49.508Z,1011.47
2019-01-31T06:25:49.529Z,1011.48
2019-01-31T06:26:49.548Z,1011.51
2019-01-31T06:27:49.567Z,1011.51
2019-01-31T06:28:49.588Z,1011.49
2019-01-31T06:29:49.608Z,1011.50
2019-01-31T06:30:49.632Z,1011.49
2019-01-31T06:31:49.657Z,1011.50
2019-01-31T06:32:49.678Z,1011.47
2019-01-31T06:33:49.694Z,1011.50
2019-01-31T06:34:49.714Z,1011.49
2019-01-31T06:35:49.735Z,1011.50
2019-01-31T06:36:49.753Z,1011.52
2019-01-31T06:37:49.777Z,1011.53
2019-01-31T06:38:49.793Z,1011.52
2019-01-31T06:39:49.816Z,1011.56
2019-01-31T06:40:49.839Z,1011.56
2019-01-31T06:41:49.858Z,1011.55
2019-01-31T06:42:49.877Z,1011.60
2019-01-31T06:43:49.901Z,1011.61
2019-01-31T06:44:49.920Z,1011.59
2019-01-31T06:45:49.943Z,1011.61
2019-01-31T06:46:49.961Z,1011.63
2019-01-31T06:47:49.986Z,1011.62
2019-01-31T06:48:50.013Z,1011.59
2019-01-31T06:49:50.026Z,1011.61
2019-01-31T06:50:50.045Z,1011.63
2019-01-31T06:51:50.068Z,1011.65
2019-01-31T06:52:50.086Z,1011.67
2019-01-31T06:53:50.106Z,1011.66
2019-01-31T06:54:50.128Z,1011.68
2019-01-31T06:55:50.150Z,1011.67
2019-01-31T06:56:50.173Z,1011.67
2019-01-31T06:57:50.189Z,1011.65
2019-01-31T06:58:50.213Z,1011.68
2019-01-31T06:59:50.245Z,1011.68
2019-01-31T07:00:50.253Z,1011.69
2019-01-31T07:01:50.272Z,1011.70
2019-01-31T07:02:50.301Z,1011.74
2019-01-31T07:03:50.317Z,1011.75
2019-01-31T07:04:50.334Z,1011.76
2019-01-31T07:05:50.360Z,1011.68
2019-01-31T07:06:50.378Z,1011.73
2019-01-31T07:07:50.403Z,1011.72
2019-01-31T07:08:50.418Z,1011.76
2019-01-31T07:09:50.441Z,1011.74
2019-01-31T07:10:50.459Z,1011.76
2019-01-31T07:11:50.480Z,1011.76
2019-01-31T07:12:50.503Z,1011.73
2019-01-31T07:13:50.522Z,1011.77
2019-01-31T07:14:50.543Z,1011.83
2019-01-31T07:15:50.581Z,1011.78
2019-01-31T07:16:50.584Z,1011.81
2019-01-31T07:17:50.605Z,1011.81
2019-01-31T07:18:50.626Z,1011.81
2019-01-31T07:19:50.648Z,1011.83
2019-01-31T07:20:50.671Z,1011.83
2019-01-31T07:21:50.688Z,1011.86
2019-01-31T07:22:50.709Z,1011.89
2019-01-31T07:23:50.731Z,1011.87
2019-01-31T07:24:50.757Z,1011.82
2019-01-31T07:25:50.772Z,1011.85
2019-01-31T07:26:50.795Z,1011.88
2019-01-31T07:27:50.961Z,1011.90
2019-01-31T07:28:50.838Z,1011.91
2019-01-31T07:29:50.856Z,1011.94
2019-01-31T07:30:50.879Z,1011.94
2019-01-31T07:31:50.899Z,1011.98
2019-01-31T07:32:50.921Z,1011.97
2019-01-31T07:33:50.941Z,1011.99
2019-01-31T07:34:50.961Z,1012.01
2019-01-31T07:35:52.193Z,1011.99
2019-01-31T07:36:51.003Z,1012.04
2019-01-31T07:37:53.000Z,1012.03
2019-01-31T07:38:51.045Z,1012.00
2019-01-31T07:39:51.070Z,1012.02
2019-01-31T07:40:51.088Z,1012.09
2019-01-31T07:41:51.108Z,1012.08
2019-01-31T07:42:51.131Z,1012.07
2019-01-31T07:43:51.168Z,1012.12
2019-01-31T07:44:51.175Z,1012.07
2019-01-31T07:45:51.192Z,1012.11
2019-01-31T07:46:51.216Z,1012.13
2019-01-31T07:47:51.239Z,1012.13
2019-01-31T07:48:51.256Z,1012.15
2019-01-31T07:49:51.279Z,1012.19
2019-01-31T07:50:51.307Z,1012.19
2019-01-31T07:51:51.322Z,1012.21
2019-01-31T07:52:51.345Z,1012.21
2019-01-31T07:53:51.364Z,1012.19
2019-01-31T07:54:51.386Z,1012.20
2019-01-31T07:55:51.408Z,1012.17
2019-01-31T07:56:51.426Z,1012.21
2019-01-31T07:57:51.470Z,1012.21
2019-01-31T07:58:51.472Z,1012.20
2019-01-31T07:59:51.490Z,1012.23
2019-01-31T08:00:51.510Z,1012.20
2019-01-31T08:01:51.532Z,1012.18
2019-01-31T08:02:51.556Z,1012.21
2019-01-31T08:04:01.954Z,1012.10
2019-01-31T08:04:51.598Z,1012.20
2019-01-31T08:05:51.617Z,1012.20
2019-01-31T08:06:51.641Z,1012.14
2019-01-31T08:07:51.661Z,1012.19
2019-01-31T08:08:51.683Z,1012.15
2019-01-31T08:09:51.704Z,1012.20
2019-01-31T08:10:51.724Z,1012.17
2019-01-31T08:11:52.903Z,1012.14
2019-01-31T08:12:51.765Z,1012.16
2019-01-31T08:13:51.787Z,1012.20
2019-01-31T08:14:51.812Z,1012.18
2019-01-31T08:15:51.835Z,1012.24
2019-01-31T08:16:51.851Z,1012.22
2019-01-31T08:17:51.872Z,1012.21
2019-01-31T08:18:51.894Z,1012.25
2019-01-31T08:19:51.915Z,1012.24
2019-01-31T08:20:51.938Z,1012.24
2019-01-31T08:21:51.959Z,1012.23
2019-01-31T08:22:51.979Z,1012.21
2019-01-31T08:23:52.003Z,1012.18
2019-01-31T08:24:52.022Z,1012.20
2019-01-31T08:25:52.048Z,1012.22
2019-01-31T08:26:52.065Z,1012.23
2019-01-31T08:27:52.090Z,1012.19
2019-01-31T08:28:52.107Z,1012.23
2019-01-31T08:29:52.129Z,1012.25
2019-01-31T08:30:52.156Z,1012.27
2019-01-31T08:31:52.175Z,1012.28
2019-01-31T08:32:52.193Z,1012.31
2019-01-31T08:33:52.216Z,1012.27
2019-01-31T08:34:52.240Z,1012.26
2019-01-31T08:35:52.261Z,1012.29
2019-01-31T08:36:52.279Z,1012.28
2019-01-31T08:37:52.300Z,1012.35
2019-01-31T08:38:52.322Z,1012.34
2019-01-31T08:39:52.346Z,1012.28
2019-01-31T08:40:52.364Z,1012.32
2019-01-31T08:42:03.241Z,1012.31
2019-01-31T08:42:52.410Z,1012.31
2019-01-31T08:43:52.430Z,1012.33
2019-01-31T08:44:52.456Z,1012.39
2019-01-31T08:45:52.476Z,1012.40
2019-01-31T08:46:52.498Z,1012.40
2019-01-31T08:47:52.519Z,1012.36
2019-01-31T08:48:52.540Z,1012.39
2019-01-31T08:49:52.561Z,1012.42
2019-01-31T08:50:52.582Z,1012.39
2019-01-31T08:51:52.606Z,1012.42
2019-01-31T08:52:52.629Z,1012.39
2019-01-31T08:53:52.647Z,1012.46
2019-01-31T08:54:52.669Z,1012.46
2019-01-31T08:55:52.691Z,1012.47
2019-01-31T08:56:52.712Z,1012.46
2019-01-31T08:57:52.734Z,1012.44
2019-01-31T08:58:52.757Z,1012.44
2019-01-31T08:59:52.779Z,1012.50
2019-01-31T09:00:52.799Z,1012.51
2019-01-31T09:01:52.823Z,1012.52
2019-01-31T09:02:52.844Z,1012.52
2019-01-31T09:03:52.867Z,1012.53
2019-01-31T09:04:52.888Z,1012.54
2019-01-31T09:05:52.909Z,1012.59
2019-01-31T09:06:52.933Z,1012.55
2019-01-31T09:07:52.955Z,1012.57
2019-01-31T09:08:52.975Z,1012.57
2019-01-31T09:09:52.996Z,1012.57
2019-01-31T09:10:53.021Z,1012.65
2019-01-31T09:11:53.043Z,1012.63
2019-01-31T09:12:53.060Z,1012.64
2019-01-31T09:13:53.086Z,1012.65
2019-01-31T09:14:53.110Z,1012.68
2019-01-31T09:15:53.128Z,1012.74
2019-01-31T09:16:53.150Z,1012.68
2019-01-31T09:17:53.170Z,1012.75
2019-01-31T09:18:53.193Z,1012.75
2019-01-31T09:19:53.214Z,1012.73
2019-01-31T09:20:53.234Z,1012.76
2019-01-31T09:21:53.262Z,1012.78
2019-01-31T09:22:53.278Z,1012.78
2019-01-31T09:23:53.302Z,1012.78
2019-01-31T09:24:53.322Z,1012.83
2019-01-31T09:25:53.344Z,1012.82
2019-01-31T09:26:53.367Z,1012.87
2019-01-31T09:27:53.386Z,1012.86
2019-01-31T09:28:53.408Z,1012.87
2019-01-31T09:29:54.275Z,1012.86
2019-01-31T09:30:53.456Z,1012.84
2019-01-31T09:31:53.475Z,1012.89
2019-01-31T09:32:53.496Z,1012.84
2019-01-31T09:33:53.518Z,1012.82
2019-01-31T09:34:53.544Z,1012.83
2019-01-31T09:35:53.564Z,1012.83
2019-01-31T09:36:53.584Z,1012.86
2019-01-31T09:37:53.608Z,1012.82
2019-01-31T09:38:53.628Z,1012.84
2019-01-31T09:39:53.651Z,1012.86
2019-01-31T09:40:53.673Z,1012.85
2019-01-31T09:41:53.695Z,1012.85
2019-01-31T09:42:53.715Z,1012.81
2019-01-31T09:43:53.738Z,1012.80
2019-01-31T09:44:53.758Z,1012.82
2019-01-31T09:45:53.781Z,1012.81
2019-01-31T09:46:53.803Z,1012.77
2019-01-31T09:47:53.826Z,1012.81
2019-01-31T09:48:53.848Z,1012.82
2019-01-31T09:49:53.869Z,1012.83
2019-01-31T09:50:53.960Z,1012.83
2019-01-31T09:51:53.915Z,1012.83
2019-01-31T09:52:54.539Z,1012.80
2019-01-31T09:53:53.960Z,1012.82
2019-01-31T09:54:53.979Z,1012.81
2019-01-31T09:55:54.006Z,1012.78
2019-01-31T09:56:54.023Z,1012.77
2019-01-31T09:57:54.047Z,1012.78
2019-01-31T09:58:54.069Z,1012.77
2019-01-31T09:59:54.091Z,1012.81
2019-01-31T10:00:54.113Z,1012.76
2019-01-31T10:01:54.135Z,1012.79
2019-01-31T10:02:54.160Z,1012.74
2019-01-31T10:03:54.184Z,1012.81
2019-01-31T10:04:54.270Z,1012.76
2019-01-31T10:05:54.226Z,1012.72
2019-01-31T10:06:54.247Z,1012.73
2019-01-31T10:07:54.272Z,1012.74
2019-01-31T10:08:54.294Z,1012.74
2019-01-31T10:09:54.315Z,1012.74
2019-01-31T10:10:54.351Z,1012.78
2019-01-31T10:11:54.532Z,1012.73
2019-01-31T10:12:54.421Z,1012.72
2019-01-31T10:13:54.422Z,1012.71
2019-01-31T10:14:54.475Z,1012.72
2019-01-31T10:15:54.489Z,1012.68
2019-01-31T10:16:54.477Z,1012.71
2019-01-31T10:17:54.523Z,1012.72
2019-01-31T10:18:54.628Z,1012.69
2019-01-31T10:19:54.587Z,1012.74
2019-01-31T10:20:54.642Z,1012.75
2019-01-31T10:21:55.506Z,1012.69
2019-01-31T10:22:54.663Z,1012.70
2019-01-31T10:23:54.639Z,1012.66
2019-01-31T10:24:54.723Z,1012.64
2019-01-31T10:25:54.677Z,1012.65
2019-01-31T10:26:54.698Z,1012.61
2019-01-31T10:27:54.723Z,1012.64
2019-01-31T10:28:54.746Z,1012.65
2019-01-31T10:29:54.769Z,1012.61
2019-01-31T10:30:54.791Z,1012.67
2019-01-31T10:31:54.814Z,1012.60
2019-01-31T10:32:54.836Z,1012.68
2019-01-31T10:33:54.865Z,1012.66
2019-01-31T10:34:54.883Z,1012.68
2019-01-31T10:35:54.908Z,1012.73
2019-01-31T10:36:54.927Z,1012.72
2019-01-31T10:37:54.957Z,1012.68
2019-01-31T10:38:54.977Z,1012.64
2019-01-31T10:39:54.997Z,1012.71
2019-01-31T10:40:55.022Z,1012.72
2019-01-31T10:41:55.042Z,1012.70
2019-01-31T10:42:55.064Z,1012.67
2019-01-31T10:43:55.087Z,1012.66
2019-01-31T10:44:55.110Z,1012.65
2019-01-31T10:45:55.133Z,1012.61
2019-01-31T10:46:55.156Z,1012.62
2019-01-31T10:47:55.180Z,1012.62
2019-01-31T10:48:55.201Z,1012.61
2019-01-31T10:49:55.225Z,1012.66
2019-01-31T10:50:55.249Z,1012.62
2019-01-31T10:51:55.274Z,1012.61
2019-01-31T10:52:55.294Z,1012.60
2019-01-31T10:53:55.315Z,1012.60
2019-01-31T10:54:55.341Z,1012.59
2019-01-31T10:55:55.358Z,1012.61
2019-01-31T10:56:55.386Z,1012.62
2019-01-31T10:57:55.404Z,1012.61
2019-01-31T10:58:55.428Z,1012.54
2019-01-31T10:59:55.453Z,1012.59
2019-01-31T11:00:55.472Z,1012.61
2019-01-31T11:01:55.501Z,1012.60
2019-01-31T11:02:55.517Z,1012.59
2019-01-31T11:03:55.543Z,1012.59
2019-01-31T11:04:55.564Z,1012.54
2019-01-31T11:05:55.585Z,1012.51
2019-01-31T11:06:55.608Z,1012.58
2019-01-31T11:07:55.631Z,1012.58
2019-01-31T11:08:55.653Z,1012.62
2019-01-31T11:09:55.676Z,1012.66
2019-01-31T11:10:55.700Z,1012.61
2019-01-31T11:11:55.723Z,1012.62
2019-01-31T11:13:00.786Z,1012.58
2019-01-31T11:13:55.767Z,1012.55
2019-01-31T11:14:55.790Z,1012.57
2019-01-31T11:15:55.815Z,1012.53
2019-01-31T11:16:55.846Z,1012.57
2019-01-31T11:17:55.859Z,1012.52
2019-01-31T11:18:55.881Z,1012.52
2019-01-31T11:19:55.905Z,1012.51
2019-01-31T11:20:55.928Z,1012.48
2019-01-31T11:21:55.950Z,1012.42
2019-01-31T11:22:55.973Z,1012.46
2019-01-31T11:23:55.995Z,1012.49
2019-01-31T11:24:56.022Z,1012.51
2019-01-31T11:25:56.043Z,1012.51
2019-01-31T11:26:57.119Z,1012.46
2019-01-31T11:27:56.089Z,1012.43
2019-01-31T11:28:56.111Z,1012.38
2019-01-31T11:29:56.136Z,1012.36
2019-01-31T11:30:56.165Z,1012.39
2019-01-31T11:31:56.184Z,1012.36
2019-01-31T11:32:56.207Z,1012.36
2019-01-31T11:33:56.228Z,1012.33
2019-01-31T11:34:56.250Z,1012.38
2019-01-31T11:35:56.275Z,1012.35
2019-01-31T11:36:56.301Z,1012.42
2019-01-31T11:37:56.321Z,1012.46
2019-01-31T11:38:56.345Z,1012.43
2019-01-31T11:39:56.368Z,1012.41
2019-01-31T11:40:56.391Z,1012.42
2019-01-31T11:41:56.418Z,1012.40
2019-01-31T11:42:56.441Z,1012.41
2019-01-31T11:43:56.460Z,1012.46
2019-01-31T11:44:56.483Z,1012.47
2019-01-31T11:45:56.510Z,1012.45
2019-01-31T11:46:56.531Z,1012.45
2019-01-31T11:47:56.554Z,1012.39
2019-01-31T11:48:56.575Z,1012.42
2019-01-31T11:49:56.602Z,1012.44
2019-01-31T11:50:56.624Z,1012.45
2019-01-31T11:51:56.645Z,1012.43
2019-01-31T11:52:56.668Z,1012.47
2019-01-31T11:53:56.803Z,1012.46
2019-01-31T11:54:56.716Z,1012.47
2019-01-31T11:55:56.739Z,1012.47
2019-01-31T11:57:05.265Z,1012.52
2019-01-31T11:57:56.783Z,1012.49
2019-01-31T11:58:56.806Z,1012.50
2019-01-31T11:59:56.832Z,1012.48
2019-01-31T12:00:56.851Z,1012.44
2019-01-31T12:01:56.881Z,1012.44
2019-01-31T12:02:56.899Z,1012.39
2019-01-31T12:03:56.920Z,1012.39
2019-01-31T12:04:56.942Z,1012.40
2019-01-31T12:05:56.966Z,1012.40